MDT,Max TemperatureF,Mean TemperatureF,Min TemperatureF,Max Dew PointF,MeanDew PointF,Min DewpointF,Max Humidity, Mean Humidity, Min Humidity, Max Sea Level PressureIn, Mean Sea Level PressureIn, Min Sea Level PressureIn, Max VisibilityMiles, Mean VisibilityMiles, Min VisibilityMiles, Max Wind SpeedMPH, Mean Wind SpeedMPH, Max Gust SpeedMPH,PrecipitationIn, CloudCover, Events, WindDirDegrees
2011-10-1,84,70,57,36,30,28,33,24,13,30.11,30.06,30.01,10,10,5,33,6,48,0.00,1,,191
2011-10-2,78,68,57,46,37,32,49,35,23,30.13,30.08,30.02,10,10,10,16,7,25,0.06,1,Thunderstorm,199
2011-10-3,78,64,50,39,36,32,54,36,18,30.16,30.10,29.98,10,10,7,14,7,18,0.00,0,,143
2011-10-4,77,62,48,39,34,30,54,39,24,29.94,29.83,29.74,10,10,9,24,6,31,0.00,1,,196
2011-10-5,68,60,53,37,36,30,47,38,33,29.72,29.59,29.44,10,10,10,23,7,30,0.00,3,,158
2011-10-6,53,50,46,41,37,34,71,60,51,29.55,29.50,29.47,10,10,6,15,6,24,0.47,7,,328
2011-10-7,53,47,41,32,27,25,70,46,38,29.91,29.66,29.47,10,10,9,23,13,39,0.06,7,,235
2011-10-8,48,44,39,36,31,28,76,67,50,30.26,30.16,30.00,10,10,8,15,9,22,0.15,7,,334
2011-10-9,55,44,32,32,28,23,69,54,36,30.25,30.10,29.94,10,10,10,18,8,26,0.00,2,,156
2011-10-10,60,48,37,28,25,21,70,41,27,29.93,29.85,29.75,10,10,10,17,6,29,0.00,1,,220
2011-10-11,57,56,55,34,33,32,44,41,38,29.89,29.77,29.73,10,10,10,22,10,32,0.00,5,,220
2011-10-12,57,50,42,27,22,19,49,37,29,30.11,30.06,29.97,10,10,10,22,11,31,0.00,0,,233
2011-10-13,53,44,35,27,23,19,52,45,34,30.08,30.04,30.00,10,10,10,14,4,,0.00,4,,344
2011-10-14,55,46,37,30,27,23,65,49,38,30.12,30.05,29.96,10,10,10,12,5,17,0.00,5,,15
2011-10-15,71,54,37,37,32,27,66,49,25,30.05,29.93,29.87,10,10,10,26,8,32,0.00,2,,301
2011-10-16,57,52,46,36,34,30,58,50,44,30.13,30.04,29.93,10,10,7,17,7,26,0.15,6,,97
2011-10-17,51,43,35,32,28,25,75,59,38,30.30,30.22,30.04,10,10,10,16,8,23,0.15,4,,5
2011-10-18,53,43,33,28,24,18,61,47,35,30.44,30.36,30.29,10,10,10,10,3,,0.00,0,,113
2011-10-19,59,44,30,30,24,19,70,57,31,30.25,30.03,29.91,10,10,10,13,4,,0.00,0,,110
2011-10-20,62,60,59,28,28,27,31,29,27,30.07,30.01,29.94,10,10,10,17,6,26,0.00,0,,252
2011-10-21,60,58,55,34,33,32,44,38,34,30.16,30.13,30.08,10,10,10,14,6,20,0.00,5,,266
2011-10-22,62,62,62,28,28,27,27,26,26,30.16,30.11,30.05,10,10,10,21,10,31,0.00,2,,226
2011-10-23,64,63,62,30,30,28,30,29,26,30.08,30.05,30.02,10,10,10,22,10,34,0.00,2,,229
2011-10-24,64,50,33,34,28,23,75,56,30,30.05,29.92,29.81,10,10,10,21,8,26,0.03,2,,325
2011-10-25,39,36,32,25,20,14,75,55,38,30.25,30.17,30.07,10,9,4,18,7,25,0.00,8,,313
2011-10-26,42,34,26,19,16,9,64,51,28,30.28,30.18,30.03,10,10,10,17,5,26,0.00,2,,214
2011-10-27,48,42,37,16,12,7,41,30,24,30.11,30.05,30.02,10,10,10,20,12,34,0.00,1,,259
2011-10-28,51,36,21,18,13,10,63,47,24,30.22,30.13,29.95,10,10,10,18,5,29,0.00,0,,229
2011-10-29,39,39,39,16,16,16,39,39,39,30.11,29.94,29.85,10,10,10,29,15,43,0.00,1,,250
2011-10-30,62,44,26,25,19,12,59,44,24,30.16,30.10,30.02,10,10,10,18,5,29,0.00,0,,215
2011-10-31,60,48,35,30,28,25,70,56,29,30.06,29.94,29.84,10,10,10,23,14,32,0.01,3,,237